sensor_id;sensor_type;location;lat;lon;timestamp;P1;durP1;ratioP1;P2;durP2;ratioP2
73456;SDS011;61691;53.072;6.582;2024-03-02T00:01:15;9.88;;;2.70;;
73456;SDS011;61691;53.072;6.582;2024-03-02T00:03:42;9.82;;;2.30;;
73456;SDS011;61691;53.072;6.582;2024-03-02T00:06:11;8.13;;;2.20;;
73456;SDS011;61691;53.072;6.582;2024-03-02T00:08:38;10.52;;;2.47;;
73456;SDS011;61691;53.072;6.582;2024-03-02T00:11:05;11.48;;;2.40;;
73456;SDS011;61691;53.072;6.582;2024-03-02T00:13:32;11.65;;;2.92;;
73456;SDS011;61691;53.072;6.582;2024-03-02T00:16:00;11.43;;;2.80;;
73456;SDS011;61691;53.072;6.582;2024-03-02T00:18:30;10.15;;;2.72;;
73456;SDS011;61691;53.072;6.582;2024-03-02T00:20:59;12.38;;;3.25;;
73456;SDS011;61691;53.072;6.582;2024-03-02T00:23:27;12.00;;;2.90;;
73456;SDS011;61691;53.072;6.582;2024-03-02T00:25:56;12.27;;;2.83;;
73456;SDS011;61691;53.072;6.582;2024-03-02T00:28:24;11.35;;;2.88;;
73456;SDS011;61691;53.072;6.582;2024-03-02T00:33:26;11.40;;;2.60;;
73456;SDS011;61691;53.072;6.582;2024-03-02T00:35:56;12.90;;;2.80;;
73456;SDS011;61691;53.072;6.582;2024-03-02T00:38:23;11.10;;;2.70;;
73456;SDS011;61691;53.072;6.582;2024-03-02T00:40:50;12.15;;;2.75;;
73456;SDS011;61691;53.072;6.582;2024-03-02T00:45:50;10.88;;;2.78;;
73456;SDS011;61691;53.072;6.582;2024-03-02T00:48:17;11.43;;;2.67;;
73456;SDS011;61691;53.072;6.582;2024-03-02T00:50:43;11.45;;;3.00;;
73456;SDS011;61691;53.072;6.582;2024-03-02T00:53:11;12.05;;;2.80;;
73456;SDS011;61691;53.072;6.582;2024-03-02T00:55:38;10.73;;;2.80;;
73456;SDS011;61691;53.072;6.582;2024-03-02T00:58:10;10.75;;;2.78;;
73456;SDS011;61691;53.072;6.582;2024-03-02T01:00:37;12.20;;;2.90;;
73456;SDS011;61691;53.072;6.582;2024-03-02T01:03:03;9.20;;;2.70;;
73456;SDS011;61691;53.072;6.582;2024-03-02T01:05:30;13.68;;;2.85;;
73456;SDS011;61691;53.072;6.582;2024-03-02T01:07:57;12.10;;;2.80;;
73456;SDS011;61691;53.072;6.582;2024-03-02T01:10:24;11.63;;;2.85;;
73456;SDS011;61691;53.072;6.582;2024-03-02T01:12:52;10.57;;;2.88;;
73456;SDS011;61691;53.072;6.582;2024-03-02T01:15:18;9.93;;;2.40;;
73456;SDS011;61691;53.072;6.582;2024-03-02T01:17:46;12.82;;;2.85;;
73456;SDS011;61691;53.072;6.582;2024-03-02T01:20:12;12.95;;;2.72;;
73456;SDS011;61691;53.072;6.582;2024-03-02T01:22:39;11.40;;;2.75;;
73456;SDS011;61691;53.072;6.582;2024-03-02T01:25:06;13.10;;;2.83;;
73456;SDS011;61691;53.072;6.582;2024-03-02T01:27:35;11.68;;;2.85;;
73456;SDS011;61691;53.072;6.582;2024-03-02T01:30:01;11.68;;;2.80;;
73456;SDS011;61691;53.072;6.582;2024-03-02T01:32:28;11.68;;;2.72;;
73456;SDS011;61691;53.072;6.582;2024-03-02T01:34:56;12.10;;;2.83;;
73456;SDS011;61691;53.072;6.582;2024-03-02T01:37:22;13.73;;;3.20;;
73456;SDS011;61691;53.072;6.582;2024-03-02T01:39:50;12.38;;;2.80;;
73456;SDS011;61691;53.072;6.582;2024-03-02T01:42:17;12.25;;;2.70;;
73456;SDS011;61691;53.072;6.582;2024-03-02T01:44:44;12.43;;;2.95;;
73456;SDS011;61691;53.072;6.582;2024-03-02T01:47:11;13.60;;;3.30;;
73456;SDS011;61691;53.072;6.582;2024-03-02T01:49:38;11.30;;;2.70;;
73456;SDS011;61691;53.072;6.582;2024-03-02T01:52:05;13.38;;;3.10;;
73456;SDS011;61691;53.072;6.582;2024-03-02T01:54:31;12.32;;;3.20;;
73456;SDS011;61691;53.072;6.582;2024-03-02T01:56:59;12.25;;;3.28;;
73456;SDS011;61691;53.072;6.582;2024-03-02T01:59:25;12.80;;;2.95;;
73456;SDS011;61691;53.072;6.582;2024-03-02T02:01:53;11.18;;;2.95;;
73456;SDS011;61691;53.072;6.582;2024-03-02T02:04:19;9.40;;;2.55;;
73456;SDS011;61691;53.072;6.582;2024-03-02T02:06:53;12.93;;;3.10;;
73456;SDS011;61691;53.072;6.582;2024-03-02T02:09:20;11.95;;;2.83;;
73456;SDS011;61691;53.072;6.582;2024-03-02T02:11:47;10.85;;;2.78;;
73456;SDS011;61691;53.072;6.582;2024-03-02T02:14:15;14.52;;;3.00;;
73456;SDS011;61691;53.072;6.582;2024-03-02T02:16:42;11.25;;;3.05;;
73456;SDS011;61691;53.072;6.582;2024-03-02T02:19:09;12.52;;;2.92;;
73456;SDS011;61691;53.072;6.582;2024-03-02T02:21:36;13.40;;;3.22;;
73456;SDS011;61691;53.072;6.582;2024-03-02T02:24:02;13.82;;;3.50;;
73456;SDS011;61691;53.072;6.582;2024-03-02T02:26:30;11.02;;;3.08;;
73456;SDS011;61691;53.072;6.582;2024-03-02T02:28:56;12.73;;;3.60;;
73456;SDS011;61691;53.072;6.582;2024-03-02T02:31:23;12.30;;;3.03;;
73456;SDS011;61691;53.072;6.582;2024-03-02T02:33:50;11.82;;;3.00;;
73456;SDS011;61691;53.072;6.582;2024-03-02T02:36:16;12.18;;;3.13;;
73456;SDS011;61691;53.072;6.582;2024-03-02T02:38:44;11.68;;;2.70;;
73456;SDS011;61691;53.072;6.582;2024-03-02T02:41:14;13.82;;;3.50;;
73456;SDS011;61691;53.072;6.582;2024-03-02T02:43:41;13.55;;;3.00;;
73456;SDS011;61691;53.072;6.582;2024-03-02T02:46:07;13.25;;;3.30;;
73456;SDS011;61691;53.072;6.582;2024-03-02T02:48:34;15.27;;;3.17;;
73456;SDS011;61691;53.072;6.582;2024-03-02T02:51:01;13.35;;;3.08;;
73456;SDS011;61691;53.072;6.582;2024-03-02T02:53:28;14.38;;;3.17;;
73456;SDS011;61691;53.072;6.582;2024-03-02T02:55:55;12.13;;;3.13;;
73456;SDS011;61691;53.072;6.582;2024-03-02T02:58:21;12.35;;;3.00;;
73456;SDS011;61691;53.072;6.582;2024-03-02T03:00:48;11.65;;;2.92;;
73456;SDS011;61691;53.072;6.582;2024-03-02T03:03:15;13.35;;;3.03;;
73456;SDS011;61691;53.072;6.582;2024-03-02T03:05:42;12.05;;;2.78;;
73456;SDS011;61691;53.072;6.582;2024-03-02T03:08:08;11.98;;;3.00;;
73456;SDS011;61691;53.072;6.582;2024-03-02T03:10:35;11.45;;;2.78;;
73456;SDS011;61691;53.072;6.582;2024-03-02T03:13:02;10.45;;;2.78;;
73456;SDS011;61691;53.072;6.582;2024-03-02T03:15:28;10.55;;;2.83;;
73456;SDS011;61691;53.072;6.582;2024-03-02T03:17:55;11.30;;;2.78;;
73456;SDS011;61691;53.072;6.582;2024-03-02T03:20:22;11.55;;;2.83;;
73456;SDS011;61691;53.072;6.582;2024-03-02T03:22:49;11.13;;;2.67;;
73456;SDS011;61691;53.072;6.582;2024-03-02T03:25:16;11.93;;;3.08;;
73456;SDS011;61691;53.072;6.582;2024-03-02T03:27:43;9.65;;;2.35;;
73456;SDS011;61691;53.072;6.582;2024-03-02T03:30:10;12.82;;;2.78;;
73456;SDS011;61691;53.072;6.582;2024-03-02T03:32:37;10.25;;;2.50;;
73456;SDS011;61691;53.072;6.582;2024-03-02T03:35:04;11.07;;;2.63;;
73456;SDS011;61691;53.072;6.582;2024-03-02T03:37:31;11.52;;;2.72;;
73456;SDS011;61691;53.072;6.582;2024-03-02T03:40:03;12.45;;;3.00;;
73456;SDS011;61691;53.072;6.582;2024-03-02T03:42:36;11.07;;;2.90;;
73456;SDS011;61691;53.072;6.582;2024-03-02T03:45:05;11.93;;;2.75;;
73456;SDS011;61691;53.072;6.582;2024-03-02T03:47:33;10.93;;;2.78;;
73456;SDS011;61691;53.072;6.582;2024-03-02T03:50:00;11.48;;;2.88;;
73456;SDS011;61691;53.072;6.582;2024-03-02T03:52:26;10.23;;;2.97;;
73456;SDS011;61691;53.072;6.582;2024-03-02T03:54:53;11.88;;;3.00;;
73456;SDS011;61691;53.072;6.582;2024-03-02T03:57:20;12.93;;;3.00;;
73456;SDS011;61691;53.072;6.582;2024-03-02T03:59:48;10.05;;;2.60;;
73456;SDS011;61691;53.072;6.582;2024-03-02T04:02:14;10.05;;;2.40;;
73456;SDS011;61691;53.072;6.582;2024-03-02T04:04:41;11.73;;;3.08;;
73456;SDS011;61691;53.072;6.582;2024-03-02T04:07:07;13.25;;;2.90;;
73456;SDS011;61691;53.072;6.582;2024-03-02T04:09:34;10.70;;;2.70;;
73456;SDS011;61691;53.072;6.582;2024-03-02T04:12:01;9.77;;;2.63;;
73456;SDS011;61691;53.072;6.582;2024-03-02T04:14:27;10.45;;;2.80;;
73456;SDS011;61691;53.072;6.582;2024-03-02T04:16:54;13.27;;;3.28;;
73456;SDS011;61691;53.072;6.582;2024-03-02T04:19:21;11.13;;;2.78;;
73456;SDS011;61691;53.072;6.582;2024-03-02T04:21:48;10.20;;;2.50;;
73456;SDS011;61691;53.072;6.582;2024-03-02T04:24:15;12.00;;;3.03;;
73456;SDS011;61691;53.072;6.582;2024-03-02T04:26:42;12.63;;;2.70;;
73456;SDS011;61691;53.072;6.582;2024-03-02T04:29:08;11.73;;;2.80;;
73456;SDS011;61691;53.072;6.582;2024-03-02T04:31:35;13.05;;;2.95;;
73456;SDS011;61691;53.072;6.582;2024-03-02T04:34:01;11.05;;;2.83;;
73456;SDS011;61691;53.072;6.582;2024-03-02T04:36:28;10.05;;;2.53;;
73456;SDS011;61691;53.072;6.582;2024-03-02T04:38:56;12.70;;;2.95;;
73456;SDS011;61691;53.072;6.582;2024-03-02T04:41:23;13.00;;;2.88;;
73456;SDS011;61691;53.072;6.582;2024-03-02T04:43:49;9.65;;;2.70;;
73456;SDS011;61691;53.072;6.582;2024-03-02T04:46:16;11.55;;;2.70;;
73456;SDS011;61691;53.072;6.582;2024-03-02T04:48:43;10.20;;;2.60;;
73456;SDS011;61691;53.072;6.582;2024-03-02T04:51:10;13.85;;;2.85;;
73456;SDS011;61691;53.072;6.582;2024-03-02T04:53:37;11.85;;;2.85;;
73456;SDS011;61691;53.072;6.582;2024-03-02T04:56:04;11.45;;;2.53;;
73456;SDS011;61691;53.072;6.582;2024-03-02T04:58:50;10.57;;;2.50;;
73456;SDS011;61691;53.072;6.582;2024-03-02T05:01:16;9.02;;;2.58;;
73456;SDS011;61691;53.072;6.582;2024-03-02T05:03:44;12.13;;;2.75;;
73456;SDS011;61691;53.072;6.582;2024-03-02T05:06:11;12.82;;;2.88;;
73456;SDS011;61691;53.072;6.582;2024-03-02T05:08:38;10.02;;;2.50;;
73456;SDS011;61691;53.072;6.582;2024-03-02T05:11:04;12.70;;;2.90;;
73456;SDS011;61691;53.072;6.582;2024-03-02T05:13:51;11.90;;;2.83;;
73456;SDS011;61691;53.072;6.582;2024-03-02T05:16:18;10.90;;;2.75;;
73456;SDS011;61691;53.072;6.582;2024-03-02T05:18:45;11.85;;;2.90;;
73456;SDS011;61691;53.072;6.582;2024-03-02T05:21:11;13.18;;;2.60;;
73456;SDS011;61691;53.072;6.582;2024-03-02T05:23:38;10.98;;;2.83;;
73456;SDS011;61691;53.072;6.582;2024-03-02T05:26:05;13.20;;;3.03;;
73456;SDS011;61691;53.072;6.582;2024-03-02T05:28:32;13.50;;;3.17;;
73456;SDS011;61691;53.072;6.582;2024-03-02T05:30:58;14.85;;;2.90;;
73456;SDS011;61691;53.072;6.582;2024-03-02T05:33:25;11.48;;;3.03;;
73456;SDS011;61691;53.072;6.582;2024-03-02T05:35:52;10.63;;;2.60;;
73456;SDS011;61691;53.072;6.582;2024-03-02T05:38:19;11.55;;;2.88;;
73456;SDS011;61691;53.072;6.582;2024-03-02T05:40:48;13.90;;;3.13;;
73456;SDS011;61691;53.072;6.582;2024-03-02T05:43:15;14.18;;;3.00;;
73456;SDS011;61691;53.072;6.582;2024-03-02T05:45:41;13.18;;;3.03;;
73456;SDS011;61691;53.072;6.582;2024-03-02T05:48:08;12.27;;;3.15;;
73456;SDS011;61691;53.072;6.582;2024-03-02T05:50:35;12.25;;;2.92;;
73456;SDS011;61691;53.072;6.582;2024-03-02T05:53:02;12.55;;;3.00;;
73456;SDS011;61691;53.072;6.582;2024-03-02T05:55:29;12.02;;;2.83;;
73456;SDS011;61691;53.072;6.582;2024-03-02T05:57:56;12.10;;;2.88;;
73456;SDS011;61691;53.072;6.582;2024-03-02T06:00:42;13.20;;;3.08;;
73456;SDS011;61691;53.072;6.582;2024-03-02T06:03:09;12.43;;;2.80;;
73456;SDS011;61691;53.072;6.582;2024-03-02T06:05:37;10.63;;;2.88;;
73456;SDS011;61691;53.072;6.582;2024-03-02T06:08:03;12.38;;;3.05;;
73456;SDS011;61691;53.072;6.582;2024-03-02T06:10:30;12.60;;;2.70;;
73456;SDS011;61691;53.072;6.582;2024-03-02T06:12:57;12.05;;;2.67;;
73456;SDS011;61691;53.072;6.582;2024-03-02T06:15:25;12.45;;;2.83;;
73456;SDS011;61691;53.072;6.582;2024-03-02T06:17:52;13.27;;;2.88;;
73456;SDS011;61691;53.072;6.582;2024-03-02T06:20:18;13.30;;;3.13;;
73456;SDS011;61691;53.072;6.582;2024-03-02T06:22:45;11.60;;;2.92;;
73456;SDS011;61691;53.072;6.582;2024-03-02T06:25:12;12.77;;;2.80;;
73456;SDS011;61691;53.072;6.582;2024-03-02T06:27:39;10.05;;;2.58;;
73456;SDS011;61691;53.072;6.582;2024-03-02T06:30:06;11.98;;;2.97;;
73456;SDS011;61691;53.072;6.582;2024-03-02T06:32:34;10.80;;;2.60;;
73456;SDS011;61691;53.072;6.582;2024-03-02T06:35:01;10.20;;;2.50;;
73456;SDS011;61691;53.072;6.582;2024-03-02T06:37:30;11.10;;;2.78;;
73456;SDS011;61691;53.072;6.582;2024-03-02T06:39:58;13.93;;;3.08;;
73456;SDS011;61691;53.072;6.582;2024-03-02T06:42:24;11.10;;;2.75;;
73456;SDS011;61691;53.072;6.582;2024-03-02T06:44:51;13.05;;;2.75;;
73456;SDS011;61691;53.072;6.582;2024-03-02T06:47:18;13.48;;;2.85;;
73456;SDS011;61691;53.072;6.582;2024-03-02T06:49:46;10.93;;;2.65;;
73456;SDS011;61691;53.072;6.582;2024-03-02T06:52:13;11.57;;;2.70;;
73456;SDS011;61691;53.072;6.582;2024-03-02T06:54:40;10.35;;;2.45;;
73456;SDS011;61691;53.072;6.582;2024-03-02T06:57:06;9.98;;;2.65;;
73456;SDS011;61691;53.072;6.582;2024-03-02T06:59:33;10.82;;;2.78;;
73456;SDS011;61691;53.072;6.582;2024-03-02T07:01:59;11.68;;;2.83;;
73456;SDS011;61691;53.072;6.582;2024-03-02T07:04:27;11.57;;;2.90;;
73456;SDS011;61691;53.072;6.582;2024-03-02T07:06:53;12.02;;;2.70;;
73456;SDS011;61691;53.072;6.582;2024-03-02T07:09:21;11.82;;;2.72;;
73456;SDS011;61691;53.072;6.582;2024-03-02T07:11:51;14.70;;;3.38;;
73456;SDS011;61691;53.072;6.582;2024-03-02T07:14:17;12.60;;;3.10;;
73456;SDS011;61691;53.072;6.582;2024-03-02T07:16:44;13.18;;;3.05;;
73456;SDS011;61691;53.072;6.582;2024-03-02T07:19:11;10.32;;;2.85;;
73456;SDS011;61691;53.072;6.582;2024-03-02T07:21:38;13.82;;;3.10;;
73456;SDS011;61691;53.072;6.582;2024-03-02T07:24:05;12.40;;;3.95;;
73456;SDS011;61691;53.072;6.582;2024-03-02T07:26:32;9.80;;;2.67;;
73456;SDS011;61691;53.072;6.582;2024-03-02T07:29:02;11.45;;;2.80;;
73456;SDS011;61691;53.072;6.582;2024-03-02T07:31:29;11.88;;;2.63;;
73456;SDS011;61691;53.072;6.582;2024-03-02T07:33:56;11.60;;;2.80;;
73456;SDS011;61691;53.072;6.582;2024-03-02T07:36:23;14.43;;;3.20;;
73456;SDS011;61691;53.072;6.582;2024-03-02T07:38:49;12.40;;;2.90;;
73456;SDS011;61691;53.072;6.582;2024-03-02T07:41:17;13.18;;;3.17;;
73456;SDS011;61691;53.072;6.582;2024-03-02T07:43:44;14.20;;;3.40;;
73456;SDS011;61691;53.072;6.582;2024-03-02T07:46:11;12.60;;;2.90;;
73456;SDS011;61691;53.072;6.582;2024-03-02T07:48:38;11.85;;;2.85;;
73456;SDS011;61691;53.072;6.582;2024-03-02T07:51:05;12.15;;;2.92;;
73456;SDS011;61691;53.072;6.582;2024-03-02T07:53:32;13.13;;;3.10;;
73456;SDS011;61691;53.072;6.582;2024-03-02T07:55:58;11.63;;;2.88;;
73456;SDS011;61691;53.072;6.582;2024-03-02T07:58:29;13.93;;;3.25;;
73456;SDS011;61691;53.072;6.582;2024-03-02T08:00:57;12.30;;;2.90;;
73456;SDS011;61691;53.072;6.582;2024-03-02T08:03:24;13.40;;;2.95;;
73456;SDS011;61691;53.072;6.582;2024-03-02T08:05:51;14.25;;;2.83;;
73456;SDS011;61691;53.072;6.582;2024-03-02T08:08:19;11.18;;;2.90;;
73456;SDS011;61691;53.072;6.582;2024-03-02T08:10:46;13.50;;;3.13;;
73456;SDS011;61691;53.072;6.582;2024-03-02T08:13:12;11.38;;;2.90;;
73456;SDS011;61691;53.072;6.582;2024-03-02T08:15:40;10.20;;;2.65;;
73456;SDS011;61691;53.072;6.582;2024-03-02T08:18:07;11.05;;;2.58;;
73456;SDS011;61691;53.072;6.582;2024-03-02T08:20:34;9.50;;;2.63;;
73456;SDS011;61691;53.072;6.582;2024-03-02T08:23:01;12.52;;;2.75;;
73456;SDS011;61691;53.072;6.582;2024-03-02T08:25:28;10.70;;;2.53;;
73456;SDS011;61691;53.072;6.582;2024-03-02T08:27:55;8.30;;;2.30;;
73456;SDS011;61691;53.072;6.582;2024-03-02T08:30:21;9.93;;;2.40;;
73456;SDS011;61691;53.072;6.582;2024-03-02T08:32:48;10.20;;;2.28;;
73456;SDS011;61691;53.072;6.582;2024-03-02T08:35:15;9.23;;;2.30;;
73456;SDS011;61691;53.072;6.582;2024-03-02T08:37:42;9.57;;;2.40;;
73456;SDS011;61691;53.072;6.582;2024-03-02T08:40:09;10.30;;;2.35;;
73456;SDS011;61691;53.072;6.582;2024-03-02T08:42:40;7.43;;;1.92;;
73456;SDS011;61691;53.072;6.582;2024-03-02T08:45:07;10.30;;;2.28;;
73456;SDS011;61691;53.072;6.582;2024-03-02T08:47:34;7.60;;;1.60;;
73456;SDS011;61691;53.072;6.582;2024-03-02T08:50:01;5.90;;;1.70;;
73456;SDS011;61691;53.072;6.582;2024-03-02T08:52:30;10.88;;;2.30;;
73456;SDS011;61691;53.072;6.582;2024-03-02T08:54:56;7.78;;;2.00;;
73456;SDS011;61691;53.072;6.582;2024-03-02T08:57:23;6.20;;;1.90;;
73456;SDS011;61691;53.072;6.582;2024-03-02T08:59:50;8.05;;;1.90;;
73456;SDS011;61691;53.072;6.582;2024-03-02T09:02:17;6.93;;;1.83;;
73456;SDS011;61691;53.072;6.582;2024-03-02T09:04:43;9.73;;;2.20;;
73456;SDS011;61691;53.072;6.582;2024-03-02T09:07:10;7.93;;;1.92;;
73456;SDS011;61691;53.072;6.582;2024-03-02T09:09:37;7.38;;;1.80;;
73456;SDS011;61691;53.072;6.582;2024-03-02T09:12:05;7.95;;;2.00;;
73456;SDS011;61691;53.072;6.582;2024-03-02T09:14:33;9.50;;;2.00;;
73456;SDS011;61691;53.072;6.582;2024-03-02T09:17:01;9.40;;;2.00;;
73456;SDS011;61691;53.072;6.582;2024-03-02T09:19:29;6.82;;;1.80;;
73456;SDS011;61691;53.072;6.582;2024-03-02T09:21:57;9.70;;;1.73;;
73456;SDS011;61691;53.072;6.582;2024-03-02T09:24:25;7.47;;;2.08;;
73456;SDS011;61691;53.072;6.582;2024-03-02T09:26:52;8.95;;;1.83;;
73456;SDS011;61691;53.072;6.582;2024-03-02T09:29:18;5.65;;;1.77;;
73456;SDS011;61691;53.072;6.582;2024-03-02T09:31:47;8.82;;;1.63;;
73456;SDS011;61691;53.072;6.582;2024-03-02T09:34:13;7.25;;;1.85;;
73456;SDS011;61691;53.072;6.582;2024-03-02T09:36:41;8.20;;;1.85;;
73456;SDS011;61691;53.072;6.582;2024-03-02T09:39:08;7.95;;;1.75;;
73456;SDS011;61691;53.072;6.582;2024-03-02T09:41:36;10.35;;;2.00;;
73456;SDS011;61691;53.072;6.582;2024-03-02T09:44:04;7.47;;;1.77;;
73456;SDS011;61691;53.072;6.582;2024-03-02T09:46:31;5.15;;;1.60;;
73456;SDS011;61691;53.072;6.582;2024-03-02T09:48:58;6.15;;;1.75;;
73456;SDS011;61691;53.072;6.582;2024-03-02T09:51:25;6.72;;;1.55;;
73456;SDS011;61691;53.072;6.582;2024-03-02T09:53:52;8.15;;;1.52;;
73456;SDS011;61691;53.072;6.582;2024-03-02T09:56:28;4.75;;;1.27;;
73456;SDS011;61691;53.072;6.582;2024-03-02T09:58:55;5.68;;;1.20;;
73456;SDS011;61691;53.072;6.582;2024-03-02T10:01:22;7.55;;;1.63;;
73456;SDS011;61691;53.072;6.582;2024-03-02T10:03:48;6.82;;;1.58;;
73456;SDS011;61691;53.072;6.582;2024-03-02T10:06:18;6.75;;;1.55;;
73456;SDS011;61691;53.072;6.582;2024-03-02T10:08:45;6.45;;;1.63;;
73456;SDS011;61691;53.072;6.582;2024-03-02T10:11:17;6.15;;;1.60;;
73456;SDS011;61691;53.072;6.582;2024-03-02T10:14:06;10.45;;;2.53;;
73456;SDS011;61691;53.072;6.582;2024-03-02T10:16:35;4.00;;;1.42;;
73456;SDS011;61691;53.072;6.582;2024-03-02T10:19:24;8.30;;;1.92;;
73456;SDS011;61691;53.072;6.582;2024-03-02T10:21:51;8.02;;;1.67;;
73456;SDS011;61691;53.072;6.582;2024-03-02T10:24:20;6.88;;;1.73;;
73456;SDS011;61691;53.072;6.582;2024-03-02T10:26:48;6.07;;;1.88;;
73456;SDS011;61691;53.072;6.582;2024-03-02T10:29:15;5.63;;;1.60;;
73456;SDS011;61691;53.072;6.582;2024-03-02T10:31:45;8.80;;;1.92;;
73456;SDS011;61691;53.072;6.582;2024-03-02T10:34:13;6.13;;;1.70;;
73456;SDS011;61691;53.072;6.582;2024-03-02T10:36:40;7.95;;;1.90;;
73456;SDS011;61691;53.072;6.582;2024-03-02T10:39:08;5.18;;;1.70;;
73456;SDS011;61691;53.072;6.582;2024-03-02T10:41:36;7.20;;;2.05;;
73456;SDS011;61691;53.072;6.582;2024-03-02T10:44:05;8.20;;;1.73;;
73456;SDS011;61691;53.072;6.582;2024-03-02T10:46:33;4.60;;;1.70;;
73456;SDS011;61691;53.072;6.582;2024-03-02T10:49:02;7.55;;;1.83;;
73456;SDS011;61691;53.072;6.582;2024-03-02T10:51:34;5.85;;;1.77;;
73456;SDS011;61691;53.072;6.582;2024-03-02T10:54:03;7.80;;;1.80;;
73456;SDS011;61691;53.072;6.582;2024-03-02T10:56:31;5.00;;;1.60;;
73456;SDS011;61691;53.072;6.582;2024-03-02T10:59:06;7.15;;;1.70;;
73456;SDS011;61691;53.072;6.582;2024-03-02T11:01:38;5.85;;;1.60;;
73456;SDS011;61691;53.072;6.582;2024-03-02T11:04:07;8.15;;;1.70;;
73456;SDS011;61691;53.072;6.582;2024-03-02T11:06:35;7.82;;;1.77;;
73456;SDS011;61691;53.072;6.582;2024-03-02T11:09:06;11.20;;;1.95;;
73456;SDS011;61691;53.072;6.582;2024-03-02T11:11:39;7.05;;;1.80;;
73456;SDS011;61691;53.072;6.582;2024-03-02T11:14:13;8.43;;;1.63;;
73456;SDS011;61691;53.072;6.582;2024-03-02T11:16:42;4.88;;;1.50;;
73456;SDS011;61691;53.072;6.582;2024-03-02T11:19:11;8.68;;;1.98;;
73456;SDS011;61691;53.072;6.582;2024-03-02T11:21:43;6.57;;;1.60;;
73456;SDS011;61691;53.072;6.582;2024-03-02T11:26:51;6.60;;;1.67;;
73456;SDS011;61691;53.072;6.582;2024-03-02T11:34:36;8.30;;;1.60;;
73456;SDS011;61691;53.072;6.582;2024-03-02T11:37:05;8.45;;;1.85;;
73456;SDS011;61691;53.072;6.582;2024-03-02T11:39:32;6.70;;;1.70;;
73456;SDS011;61691;53.072;6.582;2024-03-02T11:42:00;9.90;;;1.73;;
73456;SDS011;61691;53.072;6.582;2024-03-02T11:44:27;8.75;;;1.70;;
73456;SDS011;61691;53.072;6.582;2024-03-02T11:46:58;5.05;;;1.75;;
73456;SDS011;61691;53.072;6.582;2024-03-02T11:49:44;8.40;;;1.70;;
73456;SDS011;61691;53.072;6.582;2024-03-02T11:52:18;6.78;;;1.80;;
73456;SDS011;61691;53.072;6.582;2024-03-02T11:54:46;8.40;;;1.60;;
73456;SDS011;61691;53.072;6.582;2024-03-02T11:57:14;9.57;;;1.70;;
73456;SDS011;61691;53.072;6.582;2024-03-02T11:59:47;7.82;;;1.88;;
73456;SDS011;61691;53.072;6.582;2024-03-02T12:02:16;7.22;;;1.80;;
73456;SDS011;61691;53.072;6.582;2024-03-02T12:04:45;8.15;;;1.65;;
73456;SDS011;61691;53.072;6.582;2024-03-02T12:07:21;9.13;;;1.88;;
73456;SDS011;61691;53.072;6.582;2024-03-02T12:09:59;3.67;;;1.27;;
73456;SDS011;61691;53.072;6.582;2024-03-02T12:12:30;7.43;;;1.60;;
73456;SDS011;61691;53.072;6.582;2024-03-02T12:14:56;9.43;;;2.00;;
73456;SDS011;61691;53.072;6.582;2024-03-02T12:17:23;11.73;;;1.92;;
73456;SDS011;61691;53.072;6.582;2024-03-02T12:19:50;9.73;;;1.60;;
73456;SDS011;61691;53.072;6.582;2024-03-02T12:22:16;8.73;;;2.20;;
73456;SDS011;61691;53.072;6.582;2024-03-02T12:24:44;5.35;;;1.45;;
73456;SDS011;61691;53.072;6.582;2024-03-02T12:29:41;7.70;;;1.90;;
73456;SDS011;61691;53.072;6.582;2024-03-02T12:32:08;5.88;;;1.60;;
73456;SDS011;61691;53.072;6.582;2024-03-02T12:34:35;7.13;;;1.50;;
73456;SDS011;61691;53.072;6.582;2024-03-02T12:37:02;6.35;;;1.58;;
73456;SDS011;61691;53.072;6.582;2024-03-02T12:39:29;7.03;;;1.55;;
73456;SDS011;61691;53.072;6.582;2024-03-02T12:42:02;8.35;;;1.67;;
73456;SDS011;61691;53.072;6.582;2024-03-02T12:44:29;7.55;;;1.77;;
73456;SDS011;61691;53.072;6.582;2024-03-02T12:46:56;6.88;;;1.90;;
73456;SDS011;61691;53.072;6.582;2024-03-02T12:49:26;8.23;;;1.92;;
73456;SDS011;61691;53.072;6.582;2024-03-02T12:51:54;7.47;;;2.00;;
73456;SDS011;61691;53.072;6.582;2024-03-02T12:54:22;8.80;;;1.90;;
73456;SDS011;61691;53.072;6.582;2024-03-02T12:56:49;8.13;;;2.03;;
73456;SDS011;61691;53.072;6.582;2024-03-02T12:59:20;7.38;;;1.90;;
73456;SDS011;61691;53.072;6.582;2024-03-02T13:01:53;12.48;;;2.50;;
73456;SDS011;61691;53.072;6.582;2024-03-02T13:04:27;10.98;;;2.00;;
73456;SDS011;61691;53.072;6.582;2024-03-02T13:06:55;7.90;;;1.98;;
73456;SDS011;61691;53.072;6.582;2024-03-02T13:09:25;12.80;;;2.60;;
73456;SDS011;61691;53.072;6.582;2024-03-02T13:11:52;10.57;;;2.10;;
73456;SDS011;61691;53.072;6.582;2024-03-02T13:14:21;10.82;;;2.53;;
73456;SDS011;61691;53.072;6.582;2024-03-02T13:16:49;11.50;;;2.78;;
73456;SDS011;61691;53.072;6.582;2024-03-02T13:19:18;8.77;;;2.30;;
73456;SDS011;61691;53.072;6.582;2024-03-02T13:21:47;10.95;;;2.70;;
73456;SDS011;61691;53.072;6.582;2024-03-02T13:24:14;9.73;;;2.40;;
73456;SDS011;61691;53.072;6.582;2024-03-02T13:26:41;10.90;;;2.72;;
73456;SDS011;61691;53.072;6.582;2024-03-02T13:29:08;10.73;;;2.58;;
73456;SDS011;61691;53.072;6.582;2024-03-02T13:31:35;8.98;;;2.53;;
73456;SDS011;61691;53.072;6.582;2024-03-02T13:34:01;12.55;;;3.30;;
73456;SDS011;61691;53.072;6.582;2024-03-02T13:36:28;9.73;;;2.63;;
73456;SDS011;61691;53.072;6.582;2024-03-02T13:38:55;11.68;;;2.90;;
73456;SDS011;61691;53.072;6.582;2024-03-02T13:41:22;11.80;;;2.92;;
73456;SDS011;61691;53.072;6.582;2024-03-02T13:43:49;12.30;;;2.70;;
73456;SDS011;61691;53.072;6.582;2024-03-02T13:46:19;10.40;;;2.85;;
73456;SDS011;61691;53.072;6.582;2024-03-02T13:48:46;10.98;;;3.00;;
73456;SDS011;61691;53.072;6.582;2024-03-02T13:51:13;11.60;;;3.10;;
73456;SDS011;61691;53.072;6.582;2024-03-02T13:53:40;10.43;;;2.90;;
73456;SDS011;61691;53.072;6.582;2024-03-02T13:56:09;11.95;;;2.78;;
73456;SDS011;61691;53.072;6.582;2024-03-02T13:58:36;10.48;;;3.10;;
73456;SDS011;61691;53.072;6.582;2024-03-02T14:01:02;11.43;;;3.08;;
73456;SDS011;61691;53.072;6.582;2024-03-02T14:03:31;10.43;;;2.75;;
73456;SDS011;61691;53.072;6.582;2024-03-02T14:05:58;8.98;;;2.53;;
73456;SDS011;61691;53.072;6.582;2024-03-02T14:08:24;8.93;;;2.60;;
73456;SDS011;61691;53.072;6.582;2024-03-02T14:10:51;12.35;;;2.80;;
73456;SDS011;61691;53.072;6.582;2024-03-02T14:13:18;9.80;;;2.60;;
73456;SDS011;61691;53.072;6.582;2024-03-02T14:15:45;9.07;;;2.45;;
73456;SDS011;61691;53.072;6.582;2024-03-02T14:18:12;12.60;;;3.13;;
73456;SDS011;61691;53.072;6.582;2024-03-02T14:20:39;9.00;;;2.10;;
73456;SDS011;61691;53.072;6.582;2024-03-02T14:23:08;10.82;;;2.40;;
73456;SDS011;61691;53.072;6.582;2024-03-02T14:25:36;8.75;;;2.20;;
73456;SDS011;61691;53.072;6.582;2024-03-02T14:28:03;9.30;;;2.05;;
73456;SDS011;61691;53.072;6.582;2024-03-02T14:30:50;10.38;;;2.58;;
73456;SDS011;61691;53.072;6.582;2024-03-02T14:33:17;8.35;;;1.98;;
73456;SDS011;61691;53.072;6.582;2024-03-02T14:35:44;9.65;;;2.45;;
73456;SDS011;61691;53.072;6.582;2024-03-02T14:38:11;8.60;;;2.00;;
73456;SDS011;61691;53.072;6.582;2024-03-02T14:40:38;7.68;;;2.10;;
73456;SDS011;61691;53.072;6.582;2024-03-02T14:43:05;9.27;;;2.10;;
73456;SDS011;61691;53.072;6.582;2024-03-02T14:45:32;7.88;;;2.20;;
73456;SDS011;61691;53.072;6.582;2024-03-02T14:47:59;9.88;;;2.00;;
73456;SDS011;61691;53.072;6.582;2024-03-02T14:50:27;10.88;;;2.20;;
73456;SDS011;61691;53.072;6.582;2024-03-02T14:52:54;9.93;;;2.03;;
73456;SDS011;61691;53.072;6.582;2024-03-02T14:55:24;8.73;;;1.92;;
73456;SDS011;61691;53.072;6.582;2024-03-02T14:57:50;10.50;;;2.05;;